Gsp Alcor — 9V8448 — position and weather

sailwx.info

Track history (hours):
 
Tides and Currents Weather Stations Pressure Air Temp Water Temp Dewpoint Dewpoint Depression Visibility Wind Speed Wind Dir Waves Ship Positions

Gsp Alcor

Last reported at 2018-Feb-22 06:27 UTC. Time now 2018-Feb-22 06:57 UTC.
Position N 44°40' E 029°14'.

Length 59 m; draft 4.8 m.

Type: Ship. MMSI: 565543000.

Date/timePositionNaut miles runAvg speedWind from/ knotsBaromVisibWave heightAir tempDewpointWater temp
2018-Feb-22 06:27N 44°40' E 029°14'3 7.5
2018-Feb-22 06:00N 44°42' E 029°10'2 3.1
2018-Feb-22 05:26N 44°43' E 029°08'0 0.0
2018-Feb-22 04:44N 44°43' E 029°08'0 0.0
2018-Feb-22 04:26N 44°43' E 029°08'0 0.0
2018-Feb-22 03:26N 44°43' E 029°08'0 0.0
2018-Feb-22 02:56N 44°43' E 029°08'0 0.0
2018-Feb-21 19:56N 44°43' E 029°08'0 0.0
2018-Feb-21 17:14N 44°43' E 029°08'0 0.0
2018-Feb-21 16:56N 44°43' E 029°08'0 0.0
2018-Feb-21 15:38N 44°43' E 029°08'0 0.0
2018-Feb-21 15:14N 44°43' E 029°08'0 0.0
2018-Feb-21 14:44N 44°43' E 029°08'0 0.0
2018-Feb-21 14:26N 44°43' E 029°08'0 0.0
2018-Feb-21 13:14N 44°43' E 029°08'0 0.0
2018-Feb-21 11:14N 44°43' E 029°08'0 0.0
2018-Feb-21 10:38N 44°43' E 029°08'0 0.0
2018-Feb-21 10:26N 44°43' E 029°08'0 0.0
2018-Feb-21 09:56N 44°43' E 029°08'0 0.5
2018-Feb-21 09:14N 44°43' E 029°09'2 8.0
2018-Feb-21 09:00N 44°42' E 029°11'3 0.7
2018-Feb-21 05:26N 44°41' E 029°14'0 0.0
2018-Feb-21 03:32N 44°41' E 029°14'0 0.1
2018-Feb-21 03:26N 44°41' E 029°14'0 0.0
2018-Feb-21 01:53N 44°41' E 029°14'0 0.0
2018-Feb-21 01:20N 44°41' E 029°14'0 0.0
2018-Feb-20 21:32N 44°41' E 029°14'0 0.0
2018-Feb-20 21:08N 44°41' E 029°14'0 0.0
2018-Feb-20 20:56N 44°41' E 029°14'0 0.0
2018-Feb-20 19:50N 44°41' E 029°14'0 0.0
2018-Feb-20 19:08N 44°41' E 029°14'0 0.0
2018-Feb-20 18:50N 44°41' E 029°14'0 0.0
2018-Feb-20 18:26N 44°41' E 029°14'0 0.0
2018-Feb-20 17:50N 44°41' E 029°14'0 0.0
2018-Feb-20 17:20N 44°41' E 029°14'0 0.0
2018-Feb-20 16:56N 44°41' E 029°14'0 0.0
2018-Feb-20 16:26N 44°41' E 029°14'11 2.0
2018-Feb-20 10:58N 44°33' E 029°25'4 8.1
2018-Feb-20 10:30N 44°35' E 029°21'4 8.2
2018-Feb-20 10:00N 44°38' E 029°18'3 5.2
2018-Feb-20 09:23N 44°41' E 029°15'0 0.0
2018-Feb-20 08:59N 44°41' E 029°15'0 0.0
2018-Feb-20 08:29N 44°41' E 029°15'0 0.0
2018-Feb-19 17:42N 44°41' E 029°15'13 1.9
2018-Feb-19 10:47N 44°32' E 029°28'1 3.6
2018-Feb-19 10:30N 44°32' E 029°27'4 8.6
2018-Feb-19 10:01N 44°35' E 029°22'4 3.4
2018-Feb-19 08:51N 44°33' E 029°27'0 0.1
2018-Feb-19 08:08N 44°33' E 029°27'0 0.5
2018-Feb-19 07:58N 44°33' E 029°27'9 0.5
2018-Feb-18 15:09N 44°26' E 029°19'1 6.8
2018-Feb-18 14:57N 44°25' E 029°17'3 6.6
2018-Feb-18 14:30N 44°23' E 029°14'3 6.8
2018-Feb-18 14:00N 44°21' E 029°10'3 6.8
2018-Feb-18 13:30N 44°19' E 029°06'3 6.8
2018-Feb-18 13:00N 44°17' E 029°03'4 8.2
2018-Feb-18 12:30N 44°14' E 028°59'4 8.8
2018-Feb-18 12:00N 44°11' E 028°55'4 8.9
2018-Feb-18 11:30N 44°07' E 028°51'4 8.4
2018-Feb-18 11:00N 44°06' E 028°45'4 7.1
2018-Feb-18 10:30N 44°08' E 028°41'2 4.2
2018-Feb-18 10:00N 44°10' E 028°39'0 0.0
2018-Feb-18 09:30N 44°10' E 028°39'0 0.0
2018-Feb-18 09:00N 44°10' E 028°39'0 0.0
2018-Feb-18 08:30N 44°10' E 028°39'0 0.0
2018-Feb-18 08:00N 44°10' E 028°39'0 0.0
2018-Feb-18 07:30N 44°10' E 028°39'0 0.0
2018-Feb-18 07:00N 44°10' E 028°39'0 0.0
2018-Feb-18 06:30N 44°10' E 028°39'0 0.0
2018-Feb-18 06:00N 44°10' E 028°39'0 0.0
2018-Feb-18 05:30N 44°10' E 028°39'0 0.0
2018-Feb-18 05:00N 44°10' E 028°39'0 0.0
2018-Feb-18 04:30N 44°10' E 028°39'0 0.0
2018-Feb-18 04:00N 44°10' E 028°39'0 0.0
2018-Feb-18 03:30N 44°10' E 028°39'0 0.0
2018-Feb-18 03:00N 44°10' E 028°39'0 0.0
2018-Feb-18 02:30N 44°10' E 028°39'0 0.0
2018-Feb-18 02:00N 44°10' E 028°39'0 0.0
2018-Feb-18 01:30N 44°10' E 028°39'0 0.0
2018-Feb-18 00:57N 44°10' E 028°39'0 0.0
2018-Feb-18 00:30N 44°10' E 028°39'0 0.0
2018-Feb-18 00:00N 44°10' E 028°39'0 0.0
2018-Feb-17 23:30N 44°10' E 028°39'0 0.0
2018-Feb-17 23:00N 44°10' E 028°39'0 0.0
2018-Feb-17 22:30N 44°10' E 028°39'0 0.0
2018-Feb-17 22:00N 44°10' E 028°39'0 0.0
2018-Feb-17 21:30N 44°10' E 028°39'0 0.0
2018-Feb-17 21:00N 44°10' E 028°39'0 0.0
2018-Feb-17 20:30N 44°10' E 028°39'0 0.0
2018-Feb-17 20:00N 44°10' E 028°39'0 0.0
2018-Feb-17 19:30N 44°10' E 028°39'0 0.0
2018-Feb-17 19:00N 44°10' E 028°39'0 0.0
2018-Feb-17 18:30N 44°10' E 028°39'0 0.0
2018-Feb-17 18:00N 44°10' E 028°39'0 0.0
2018-Feb-17 17:30N 44°10' E 028°39'0 0.0
2018-Feb-17 17:00N 44°10' E 028°39'0 0.0
2018-Feb-17 16:30N 44°10' E 028°39'0 0.0
2018-Feb-17 16:00N 44°10' E 028°39'0 0.0
2018-Feb-17 15:30N 44°10' E 028°39'0 0.0
2018-Feb-17 15:00N 44°10' E 028°39'0 0.0
2018-Feb-17 14:30N 44°10' E 028°39'0 0.0
2018-Feb-17 14:00N 44°10' E 028°39'0 0.0
2018-Feb-17 13:30N 44°10' E 028°39'0 0.0
2018-Feb-17 13:00N 44°10' E 028°39'0 0.0
2018-Feb-17 12:27N 44°10' E 028°39'0 0.0
2018-Feb-17 12:00N 44°10' E 028°39'0 0.0
2018-Feb-17 11:30N 44°10' E 028°39'0 0.0
2018-Feb-17 11:00N 44°10' E 028°39'0 0.0
2018-Feb-17 10:30N 44°10' E 028°39'0 0.0
2018-Feb-17 10:00N 44°10' E 028°39'0 0.0
2018-Feb-17 09:30N 44°10' E 028°39'0 0.0
2018-Feb-17 09:00N 44°10' E 028°39'0 0.0
2018-Feb-17 08:30N 44°10' E 028°39'0 0.0
2018-Feb-17 08:00N 44°10' E 028°39'0 0.0
2018-Feb-17 07:30N 44°10' E 028°39'0 0.0
2018-Feb-17 07:00N 44°10' E 028°39'0 0.0
2018-Feb-17 06:30N 44°10' E 028°39'0 0.0
2018-Feb-17 06:00N 44°10' E 028°39'0 0.0
2018-Feb-17 05:30N 44°10' E 028°39'0 0.0
2018-Feb-17 05:00N 44°10' E 028°39'0 0.0
2018-Feb-17 04:30N 44°10' E 028°39'0 0.0
2018-Feb-17 04:00N 44°10' E 028°39'0 0.0
2018-Feb-17 03:30N 44°10' E 028°39'0 0.0
2018-Feb-17 02:57N 44°10' E 028°39'0 0.0
2018-Feb-17 02:30N 44°10' E 028°39'0 0.0
2018-Feb-17 02:00N 44°10' E 028°39'0 0.0
2018-Feb-17 01:30N 44°10' E 028°39'0 0.0
2018-Feb-17 01:00N 44°10' E 028°39'0 0.0
2018-Feb-17 00:30N 44°10' E 028°39'0 0.0
2018-Feb-17 00:00N 44°10' E 028°39'0 0.0
2018-Feb-16 23:30N 44°10' E 028°39'0 0.0
2018-Feb-16 23:00N 44°10' E 028°39'0 0.0
2018-Feb-16 22:30N 44°10' E 028°39'0 0.0
2018-Feb-16 22:00N 44°10' E 028°39'0 0.0
2018-Feb-16 21:30N 44°10' E 028°39'0 0.0
2018-Feb-16 21:00N 44°10' E 028°39'0 0.0
2018-Feb-16 20:30N 44°10' E 028°39'0 0.0
2018-Feb-16 20:00N 44°10' E 028°39'0 0.0
2018-Feb-16 19:30N 44°10' E 028°39'0 0.0
2018-Feb-16 19:00N 44°10' E 028°39'0 0.1
2018-Feb-16 18:30N 44°10' E 028°39'0 0.0
2018-Feb-16 18:00N 44°10' E 028°39'0 0.0
2018-Feb-16 17:30N 44°10' E 028°39'0 0.0
2018-Feb-16 17:00N 44°10' E 028°39'0 0.0
2018-Feb-16 16:21N 44°10' E 028°39'0 0.1
2018-Feb-16 16:00N 44°10' E 028°39'0 0.1
2018-Feb-16 15:30N 44°10' E 028°39'0 0.0
2018-Feb-16 15:00N 44°10' E 028°39'0 0.0
2018-Feb-16 14:30N 44°10' E 028°39'0 0.0
2018-Feb-16 14:00N 44°10' E 028°39'0 0.0
2018-Feb-16 13:30N 44°10' E 028°39'0 0.0
2018-Feb-16 13:00N 44°10' E 028°39'0 0.0
2018-Feb-16 12:30N 44°10' E 028°39'0 0.0
2018-Feb-16 12:00N 44°10' E 028°39'0 0.0
2018-Feb-16 11:30N 44°10' E 028°39'0 0.0
2018-Feb-16 11:00N 44°10' E 028°39'0 0.0
2018-Feb-16 10:30N 44°10' E 028°39'0 0.0
2018-Feb-16 10:00N 44°10' E 028°39'0 0.0
2018-Feb-16 09:30N 44°10' E 028°39'0 0.0
2018-Feb-16 08:57N 44°10' E 028°39'0 0.0
2018-Feb-16 08:30N 44°10' E 028°39'0 0.0
2018-Feb-16 08:00N 44°10' E 028°39'0 0.0
2018-Feb-16 07:30N 44°10' E 028°39'0 0.0
2018-Feb-16 07:00N 44°10' E 028°39'0 0.0
2018-Feb-16 06:30N 44°10' E 028°39'0 0.0
2018-Feb-16 06:00N 44°10' E 028°39'0 0.0
2018-Feb-16 05:30N 44°10' E 028°39'0 0.0
2018-Feb-16 04:54N 44°10' E 028°39'0 0.0
2018-Feb-16 04:30N 44°10' E 028°39'0 0.0
2018-Feb-16 04:00N 44°10' E 028°39'0 0.0
2018-Feb-16 03:30N 44°10' E 028°39'0 0.0
2018-Feb-16 03:00N 44°10' E 028°39'0 0.0
2018-Feb-16 02:30N 44°10' E 028°39'0 0.0
2018-Feb-16 02:00N 44°10' E 028°39'0 0.0
2018-Feb-16 01:30N 44°10' E 028°39'0 0.0
2018-Feb-16 01:00N 44°10' E 028°39'0 0.0
2018-Feb-16 00:30N 44°10' E 028°39'0 0.0
2018-Feb-16 00:00N 44°10' E 028°39'0 0.0
2018-Feb-15 23:30N 44°10' E 028°39'0 0.0
2018-Feb-15 23:00N 44°10' E 028°39'0 0.0
2018-Feb-15 22:30N 44°10' E 028°39'0 0.0
2018-Feb-15 22:00N 44°10' E 028°39'0 0.0
2018-Feb-15 21:30N 44°10' E 028°39'0 0.0
2018-Feb-15 21:00N 44°10' E 028°39'0 0.0
2018-Feb-15 20:30N 44°10' E 028°39'0 0.0
2018-Feb-15 20:00N 44°10' E 028°39'0 0.0
2018-Feb-15 19:30N 44°10' E 028°39'0 0.0
2018-Feb-15 18:57N 44°10' E 028°39'0 0.0
2018-Feb-15 18:30N 44°10' E 028°39'0 0.0
2018-Feb-15 18:00N 44°10' E 028°39'0 0.0
2018-Feb-15 17:30N 44°10' E 028°39'0 0.0
2018-Feb-15 17:00N 44°10' E 028°39'0 0.0
2018-Feb-15 16:30N 44°10' E 028°39'0 0.0
2018-Feb-15 16:00N 44°10' E 028°39'0 0.0
2018-Feb-15 15:30N 44°10' E 028°39'0 0.0
2018-Feb-15 15:00N 44°10' E 028°39'0 0.0
2018-Feb-15 14:30N 44°10' E 028°39'0 0.0
2018-Feb-15 14:00N 44°10' E 028°39'0 0.0
2018-Feb-15 13:30N 44°10' E 028°39'0 0.0
2018-Feb-15 13:00N 44°10' E 028°39'0 0.0
2018-Feb-15 12:30N 44°10' E 028°39'0 0.0
2018-Feb-15 12:00N 44°10' E 028°39'0 0.0
2018-Feb-15 11:30N 44°10' E 028°39'0 0.0
2018-Feb-15 10:57N 44°10' E 028°39'0 0.0
2018-Feb-15 10:30N 44°10' E 028°39'0 0.0
2018-Feb-15 10:00N 44°10' E 028°39'0 0.0
2018-Feb-15 09:30N 44°10' E 028°39'0 0.0
2018-Feb-15 08:57N 44°10' E 028°39'0 0.1
2018-Feb-15 08:30N 44°10' E 028°39'0 0.1
2018-Feb-15 08:00N 44°10' E 028°39'0 0.0
2018-Feb-15 07:30N 44°10' E 028°39'0 0.0
2018-Feb-15 07:00N 44°10' E 028°39'0 0.0
2018-Feb-15 06:24N 44°10' E 028°39'0 0.0
2018-Feb-15 06:00N 44°10' E 028°39'0 0.0
2018-Feb-15 05:30N 44°10' E 028°39'0 0.0
2018-Feb-15 05:00N 44°10' E 028°39'0 0.0
2018-Feb-15 04:30N 44°10' E 028°39'0 0.0
2018-Feb-15 04:00N 44°10' E 028°39'0 0.0
2018-Feb-15 03:30N 44°10' E 028°39'0 0.0
2018-Feb-15 03:00N 44°10' E 028°39'0 0.0
2018-Feb-15 02:30N 44°10' E 028°39'0 0.0
2018-Feb-15 02:00N 44°10' E 028°39'0 0.0
2018-Feb-15 01:30N 44°10' E 028°39'0 0.0
2018-Feb-15 01:00N 44°10' E 028°39'0 0.0
2018-Feb-15 00:30N 44°10' E 028°39'0 0.0
2018-Feb-15 00:00N 44°10' E 028°39'0 0.0
2018-Feb-14 23:30N 44°10' E 028°39'0 0.0
2018-Feb-14 23:00N 44°10' E 028°39'0 0.0
2018-Feb-14 22:30N 44°10' E 028°39'0 0.0
2018-Feb-14 22:00N 44°10' E 028°39'0 0.0
2018-Feb-14 21:30N 44°10' E 028°39'0 0.0
2018-Feb-14 21:00N 44°10' E 028°39'0 0.0
2018-Feb-14 20:30N 44°10' E 028°39'0 0.0
2018-Feb-14 20:00N 44°10' E 028°39'0 0.0
2018-Feb-14 19:30N 44°10' E 028°39'0 0.0
2018-Feb-14 19:00N 44°10' E 028°39'0 0.0
2018-Feb-14 18:30N 44°10' E 028°39'0 0.0
2018-Feb-14 18:00N 44°10' E 028°39'0 0.0
2018-Feb-14 17:30N 44°10' E 028°39'0 0.0
2018-Feb-14 17:00N 44°10' E 028°39'0 0.0
2018-Feb-14 16:31N 44°10' E 028°39'0 0.0
2018-Feb-14 16:00N 44°10' E 028°39'0 0.0
2018-Feb-14 15:30N 44°10' E 028°39'0 0.0
2018-Feb-14 15:00N 44°10' E 028°39'0 0.0
2018-Feb-14 14:30N 44°10' E 028°39'0 0.0
2018-Feb-14 14:00N 44°10' E 028°39'0 0.1
2018-Feb-14 13:30N 44°10' E 028°39'0 0.1
2018-Feb-14 13:00N 44°10' E 028°39'0 0.0
2018-Feb-14 12:30N 44°10' E 028°39'0 0.0
2018-Feb-14 12:00N 44°10' E 028°39'0 0.0
2018-Feb-14 11:31N 44°10' E 028°39'0 0.0
2018-Feb-14 11:00N 44°10' E 028°39'0 0.0
2018-Feb-14 10:30N 44°10' E 028°39'0 0.0
2018-Feb-14 10:00N 44°10' E 028°39'0 0.0
2018-Feb-14 09:30N 44°10' E 028°39'0 0.0
2018-Feb-14 09:00N 44°10' E 028°39'0 0.0
2018-Feb-14 08:30N 44°10' E 028°39'0 0.0
2018-Feb-14 08:00N 44°10' E 028°39'0 0.0
2018-Feb-14 07:30N 44°10' E 028°39'0 0.0
2018-Feb-14 07:00N 44°10' E 028°39'0 0.0
2018-Feb-14 06:30N 44°10' E 028°39'0 0.0
2018-Feb-14 06:00N 44°10' E 028°39'0 0.0
2018-Feb-14 05:29N 44°10' E 028°39'0 0.0
2018-Feb-14 05:00N 44°10' E 028°39'0 0.0
2018-Feb-14 04:30N 44°10' E 028°39'0 0.0
2018-Feb-14 04:00N 44°10' E 028°39'0 0.0
2018-Feb-14 03:30N 44°10' E 028°39'0 0.0
2018-Feb-14 03:00N 44°10' E 028°39'0 0.0
2018-Feb-14 02:30N 44°10' E 028°39'1 1.4
2018-Feb-14 02:00N 44°09' E 028°40'4 8.1
2018-Feb-14 01:30N 44°06' E 028°43'4 8.0
2018-Feb-14 01:00N 44°07' E 028°48'4 8.5
2018-Feb-14 00:30N 44°10' E 028°52'4 7.1
2018-Feb-14 00:01N 44°12' E 028°56'3 6.1
2018-Feb-13 23:30N 44°14' E 028°59'3 6.3
2018-Feb-13 23:01N 44°16' E 029°03'3 6.5
2018-Feb-13 22:30N 44°18' E 029°06'3 6.5
2018-Feb-13 22:01N 44°20' E 029°09'3 6.7
2018-Feb-13 21:30N 44°23' E 029°13'3 6.6
2018-Feb-13 20:59N 44°25' E 029°16'3 6.6
2018-Feb-13 20:29N 44°27' E 029°19'3 6.9
2018-Feb-13 20:00N 44°30' E 029°23'6 0.8
2018-Feb-13 12:22N 44°33' E 029°30'2 5.7
2018-Feb-13 12:00N 44°32' E 029°33'2 2.3
2018-Feb-13 11:14N 44°31' E 029°30'2 7.6
2018-Feb-13 11:00N 44°32' E 029°28'0 0.2
2018-Feb-13 10:30N 44°32' E 029°28'0 0.1
2018-Feb-13 10:00N 44°32' E 029°28'2 0.1
2018-Feb-12 11:43N 44°33' E 029°25'2 7.6
2018-Feb-12 11:30N 44°34' E 029°23'4 7.3
2018-Feb-12 11:00N 44°36' E 029°19'4 7.7
2018-Feb-12 10:30N 44°38' E 029°15'  
Track history (hours):
 
Tides and Currents Weather Stations Pressure Air Temp Water Temp Dewpoint Dewpoint Depression Visibility Wind Speed Wind Dir Waves Ship Positions

Gsp Alcor

Last reported at 2018-Feb-22 06:27 UTC. Time now 2018-Feb-22 06:57 UTC.
Position N 44°40' E 029°14'.

Length 59 m; draft 4.8 m.

Type: Ship. MMSI: 565543000.

Date/timePositionNaut miles runAvg speedWind from/ knotsBaromVisibWave heightAir tempDewpointWater temp
2018-Feb-22 06:27N 44°40' E 029°14'3 7.5
2018-Feb-22 06:00N 44°42' E 029°10'2 3.1
2018-Feb-22 05:26N 44°43' E 029°08'0 0.0
2018-Feb-22 04:44N 44°43' E 029°08'0 0.0
2018-Feb-22 04:26N 44°43' E 029°08'0 0.0
2018-Feb-22 03:26N 44°43' E 029°08'0 0.0
2018-Feb-22 02:56N 44°43' E 029°08'0 0.0
2018-Feb-21 19:56N 44°43' E 029°08'0 0.0
2018-Feb-21 17:14N 44°43' E 029°08'0 0.0
2018-Feb-21 16:56N 44°43' E 029°08'0 0.0
2018-Feb-21 15:38N 44°43' E 029°08'0 0.0
2018-Feb-21 15:14N 44°43' E 029°08'0 0.0
2018-Feb-21 14:44N 44°43' E 029°08'0 0.0
2018-Feb-21 14:26N 44°43' E 029°08'0 0.0
2018-Feb-21 13:14N 44°43' E 029°08'0 0.0
2018-Feb-21 11:14N 44°43' E 029°08'0 0.0
2018-Feb-21 10:38N 44°43' E 029°08'0 0.0
2018-Feb-21 10:26N 44°43' E 029°08'0 0.0
2018-Feb-21 09:56N 44°43' E 029°08'0 0.5
2018-Feb-21 09:14N 44°43' E 029°09'2 8.0
2018-Feb-21 09:00N 44°42' E 029°11'3 0.7
2018-Feb-21 05:26N 44°41' E 029°14'0 0.0
2018-Feb-21 03:32N 44°41' E 029°14'0 0.1
2018-Feb-21 03:26N 44°41' E 029°14'0 0.0
2018-Feb-21 01:53N 44°41' E 029°14'0 0.0
2018-Feb-21 01:20N 44°41' E 029°14'0 0.0
2018-Feb-20 21:32N 44°41' E 029°14'0 0.0
2018-Feb-20 21:08N 44°41' E 029°14'0 0.0
2018-Feb-20 20:56N 44°41' E 029°14'0 0.0
2018-Feb-20 19:50N 44°41' E 029°14'0 0.0
2018-Feb-20 19:08N 44°41' E 029°14'0 0.0
2018-Feb-20 18:50N 44°41' E 029°14'0 0.0
2018-Feb-20 18:26N 44°41' E 029°14'0 0.0
2018-Feb-20 17:50N 44°41' E 029°14'0 0.0
2018-Feb-20 17:20N 44°41' E 029°14'0 0.0
2018-Feb-20 16:56N 44°41' E 029°14'0 0.0
2018-Feb-20 16:26N 44°41' E 029°14'11 2.0
2018-Feb-20 10:58N 44°33' E 029°25'4 8.1
2018-Feb-20 10:30N 44°35' E 029°21'4 8.2
2018-Feb-20 10:00N 44°38' E 029°18'3 5.2
2018-Feb-20 09:23N 44°41' E 029°15'0 0.0
2018-Feb-20 08:59N 44°41' E 029°15'0 0.0
2018-Feb-20 08:29N 44°41' E 029°15'0 0.0
2018-Feb-19 17:42N 44°41' E 029°15'13 1.9
2018-Feb-19 10:47N 44°32' E 029°28'1 3.6
2018-Feb-19 10:30N 44°32' E 029°27'4 8.6
2018-Feb-19 10:01N 44°35' E 029°22'4 3.4
2018-Feb-19 08:51N 44°33' E 029°27'0 0.1
2018-Feb-19 08:08N 44°33' E 029°27'0 0.5
2018-Feb-19 07:58N 44°33' E 029°27'9 0.5
2018-Feb-18 15:09N 44°26' E 029°19'1 6.8
2018-Feb-18 14:57N 44°25' E 029°17'3 6.6
2018-Feb-18 14:30N 44°23' E 029°14'3 6.8
2018-Feb-18 14:00N 44°21' E 029°10'3 6.8
2018-Feb-18 13:30N 44°19' E 029°06'3 6.8
2018-Feb-18 13:00N 44°17' E 029°03'4 8.2
2018-Feb-18 12:30N 44°14' E 028°59'4 8.8
2018-Feb-18 12:00N 44°11' E 028°55'4 8.9
2018-Feb-18 11:30N 44°07' E 028°51'4 8.4
2018-Feb-18 11:00N 44°06' E 028°45'4 7.1
2018-Feb-18 10:30N 44°08' E 028°41'2 4.2
2018-Feb-18 10:00N 44°10' E 028°39'0 0.0
2018-Feb-18 09:30N 44°10' E 028°39'0 0.0
2018-Feb-18 09:00N 44°10' E 028°39'0 0.0
2018-Feb-18 08:30N 44°10' E 028°39'0 0.0
2018-Feb-18 08:00N 44°10' E 028°39'0 0.0
2018-Feb-18 07:30N 44°10' E 028°39'0 0.0
2018-Feb-18 07:00N 44°10' E 028°39'0 0.0
2018-Feb-18 06:30N 44°10' E 028°39'0 0.0
2018-Feb-18 06:00N 44°10' E 028°39'0 0.0
2018-Feb-18 05:30N 44°10' E 028°39'0 0.0
2018-Feb-18 05:00N 44°10' E 028°39'0 0.0
2018-Feb-18 04:30N 44°10' E 028°39'0 0.0
2018-Feb-18 04:00N 44°10' E 028°39'0 0.0
2018-Feb-18 03:30N 44°10' E 028°39'0 0.0
2018-Feb-18 03:00N 44°10' E 028°39'0 0.0
2018-Feb-18 02:30N 44°10' E 028°39'0 0.0
2018-Feb-18 02:00N 44°10' E 028°39'0 0.0
2018-Feb-18 01:30N 44°10' E 028°39'0 0.0
2018-Feb-18 00:57N 44°10' E 028°39'0 0.0
2018-Feb-18 00:30N 44°10' E 028°39'0 0.0
2018-Feb-18 00:00N 44°10' E 028°39'0 0.0
2018-Feb-17 23:30N 44°10' E 028°39'0 0.0
2018-Feb-17 23:00N 44°10' E 028°39'0 0.0
2018-Feb-17 22:30N 44°10' E 028°39'0 0.0
2018-Feb-17 22:00N 44°10' E 028°39'0 0.0
2018-Feb-17 21:30N 44°10' E 028°39'0 0.0
2018-Feb-17 21:00N 44°10' E 028°39'0 0.0
2018-Feb-17 20:30N 44°10' E 028°39'0 0.0
2018-Feb-17 20:00N 44°10' E 028°39'0 0.0
2018-Feb-17 19:30N 44°10' E 028°39'0 0.0
2018-Feb-17 19:00N 44°10' E 028°39'0 0.0
2018-Feb-17 18:30N 44°10' E 028°39'0 0.0
2018-Feb-17 18:00N 44°10' E 028°39'0 0.0
2018-Feb-17 17:30N 44°10' E 028°39'0 0.0
2018-Feb-17 17:00N 44°10' E 028°39'0 0.0
2018-Feb-17 16:30N 44°10' E 028°39'0 0.0
2018-Feb-17 16:00N 44°10' E 028°39'0 0.0
2018-Feb-17 15:30N 44°10' E 028°39'0 0.0
2018-Feb-17 15:00N 44°10' E 028°39'0 0.0
2018-Feb-17 14:30N 44°10' E 028°39'0 0.0
2018-Feb-17 14:00N 44°10' E 028°39'0 0.0
2018-Feb-17 13:30N 44°10' E 028°39'0 0.0
2018-Feb-17 13:00N 44°10' E 028°39'0 0.0
2018-Feb-17 12:27N 44°10' E 028°39'0 0.0
2018-Feb-17 12:00N 44°10' E 028°39'0 0.0
2018-Feb-17 11:30N 44°10' E 028°39'0 0.0
2018-Feb-17 11:00N 44°10' E 028°39'0 0.0
2018-Feb-17 10:30N 44°10' E 028°39'0 0.0
2018-Feb-17 10:00N 44°10' E 028°39'0 0.0
2018-Feb-17 09:30N 44°10' E 028°39'0 0.0
2018-Feb-17 09:00N 44°10' E 028°39'0 0.0
2018-Feb-17 08:30N 44°10' E 028°39'0 0.0
2018-Feb-17 08:00N 44°10' E 028°39'0 0.0
2018-Feb-17 07:30N 44°10' E 028°39'0 0.0
2018-Feb-17 07:00N 44°10' E 028°39'0 0.0
2018-Feb-17 06:30N 44°10' E 028°39'0 0.0
2018-Feb-17 06:00N 44°10' E 028°39'0 0.0
2018-Feb-17 05:30N 44°10' E 028°39'0 0.0
2018-Feb-17 05:00N 44°10' E 028°39'0 0.0
2018-Feb-17 04:30N 44°10' E 028°39'0 0.0
2018-Feb-17 04:00N 44°10' E 028°39'0 0.0
2018-Feb-17 03:30N 44°10' E 028°39'0 0.0
2018-Feb-17 02:57N 44°10' E 028°39'0 0.0
2018-Feb-17 02:30N 44°10' E 028°39'0 0.0
2018-Feb-17 02:00N 44°10' E 028°39'0 0.0
2018-Feb-17 01:30N 44°10' E 028°39'0 0.0
2018-Feb-17 01:00N 44°10' E 028°39'0 0.0
2018-Feb-17 00:30N 44°10' E 028°39'0 0.0
2018-Feb-17 00:00N 44°10' E 028°39'0 0.0
2018-Feb-16 23:30N 44°10' E 028°39'0 0.0
2018-Feb-16 23:00N 44°10' E 028°39'0 0.0
2018-Feb-16 22:30N 44°10' E 028°39'0 0.0
2018-Feb-16 22:00N 44°10' E 028°39'0 0.0
2018-Feb-16 21:30N 44°10' E 028°39'0 0.0
2018-Feb-16 21:00N 44°10' E 028°39'0 0.0
2018-Feb-16 20:30N 44°10' E 028°39'0 0.0
2018-Feb-16 20:00N 44°10' E 028°39'0 0.0
2018-Feb-16 19:30N 44°10' E 028°39'0 0.0
2018-Feb-16 19:00N 44°10' E 028°39'0 0.1
2018-Feb-16 18:30N 44°10' E 028°39'0 0.0
2018-Feb-16 18:00N 44°10' E 028°39'0 0.0
2018-Feb-16 17:30N 44°10' E 028°39'0 0.0
2018-Feb-16 17:00N 44°10' E 028°39'0 0.0
2018-Feb-16 16:21N 44°10' E 028°39'0 0.1
2018-Feb-16 16:00N 44°10' E 028°39'0 0.1
2018-Feb-16 15:30N 44°10' E 028°39'0 0.0
2018-Feb-16 15:00N 44°10' E 028°39'0 0.0
2018-Feb-16 14:30N 44°10' E 028°39'0 0.0
2018-Feb-16 14:00N 44°10' E 028°39'0 0.0
2018-Feb-16 13:30N 44°10' E 028°39'0 0.0
2018-Feb-16 13:00N 44°10' E 028°39'0 0.0
2018-Feb-16 12:30N 44°10' E 028°39'0 0.0
2018-Feb-16 12:00N 44°10' E 028°39'0 0.0
2018-Feb-16 11:30N 44°10' E 028°39'0 0.0
2018-Feb-16 11:00N 44°10' E 028°39'0 0.0
2018-Feb-16 10:30N 44°10' E 028°39'0 0.0
2018-Feb-16 10:00N 44°10' E 028°39'0 0.0
2018-Feb-16 09:30N 44°10' E 028°39'0 0.0
2018-Feb-16 08:57N 44°10' E 028°39'0 0.0
2018-Feb-16 08:30N 44°10' E 028°39'0 0.0
2018-Feb-16 08:00N 44°10' E 028°39'0 0.0
2018-Feb-16 07:30N 44°10' E 028°39'0 0.0
2018-Feb-16 07:00N 44°10' E 028°39'0 0.0
2018-Feb-16 06:30N 44°10' E 028°39'0 0.0
2018-Feb-16 06:00N 44°10' E 028°39'0 0.0
2018-Feb-16 05:30N 44°10' E 028°39'0 0.0
2018-Feb-16 04:54N 44°10' E 028°39'0 0.0
2018-Feb-16 04:30N 44°10' E 028°39'0 0.0
2018-Feb-16 04:00N 44°10' E 028°39'0 0.0
2018-Feb-16 03:30N 44°10' E 028°39'0 0.0
2018-Feb-16 03:00N 44°10' E 028°39'0 0.0
2018-Feb-16 02:30N 44°10' E 028°39'0 0.0
2018-Feb-16 02:00N 44°10' E 028°39'0 0.0
2018-Feb-16 01:30N 44°10' E 028°39'0 0.0
2018-Feb-16 01:00N 44°10' E 028°39'0 0.0
2018-Feb-16 00:30N 44°10' E 028°39'0 0.0
2018-Feb-16 00:00N 44°10' E 028°39'0 0.0
2018-Feb-15 23:30N 44°10' E 028°39'0 0.0
2018-Feb-15 23:00N 44°10' E 028°39'0 0.0
2018-Feb-15 22:30N 44°10' E 028°39'0 0.0
2018-Feb-15 22:00N 44°10' E 028°39'0 0.0
2018-Feb-15 21:30N 44°10' E 028°39'0 0.0
2018-Feb-15 21:00N 44°10' E 028°39'0 0.0
2018-Feb-15 20:30N 44°10' E 028°39'0 0.0
2018-Feb-15 20:00N 44°10' E 028°39'0 0.0
2018-Feb-15 19:30N 44°10' E 028°39'0 0.0
2018-Feb-15 18:57N 44°10' E 028°39'0 0.0
2018-Feb-15 18:30N 44°10' E 028°39'0 0.0
2018-Feb-15 18:00N 44°10' E 028°39'0 0.0
2018-Feb-15 17:30N 44°10' E 028°39'0 0.0
2018-Feb-15 17:00N 44°10' E 028°39'0 0.0
2018-Feb-15 16:30N 44°10' E 028°39'0 0.0
2018-Feb-15 16:00N 44°10' E 028°39'0 0.0
2018-Feb-15 15:30N 44°10' E 028°39'0 0.0
2018-Feb-15 15:00N 44°10' E 028°39'0 0.0
2018-Feb-15 14:30N 44°10' E 028°39'0 0.0
2018-Feb-15 14:00N 44°10' E 028°39'0 0.0
2018-Feb-15 13:30N 44°10' E 028°39'0 0.0
2018-Feb-15 13:00N 44°10' E 028°39'0 0.0
2018-Feb-15 12:30N 44°10' E 028°39'0 0.0
2018-Feb-15 12:00N 44°10' E 028°39'0 0.0
2018-Feb-15 11:30N 44°10' E 028°39'0 0.0
2018-Feb-15 10:57N 44°10' E 028°39'0 0.0
2018-Feb-15 10:30N 44°10' E 028°39'0 0.0
2018-Feb-15 10:00N 44°10' E 028°39'0 0.0
2018-Feb-15 09:30N 44°10' E 028°39'0 0.0
2018-Feb-15 08:57N 44°10' E 028°39'0 0.1
2018-Feb-15 08:30N 44°10' E 028°39'0 0.1
2018-Feb-15 08:00N 44°10' E 028°39'0 0.0
2018-Feb-15 07:30N 44°10' E 028°39'0 0.0
2018-Feb-15 07:00N 44°10' E 028°39'0 0.0
2018-Feb-15 06:24N 44°10' E 028°39'0 0.0
2018-Feb-15 06:00N 44°10' E 028°39'0 0.0
2018-Feb-15 05:30N 44°10' E 028°39'0 0.0
2018-Feb-15 05:00N 44°10' E 028°39'0 0.0
2018-Feb-15 04:30N 44°10' E 028°39'0 0.0
2018-Feb-15 04:00N 44°10' E 028°39'0 0.0
2018-Feb-15 03:30N 44°10' E 028°39'0 0.0
2018-Feb-15 03:00N 44°10' E 028°39'0 0.0
2018-Feb-15 02:30N 44°10' E 028°39'0 0.0
2018-Feb-15 02:00N 44°10' E 028°39'0 0.0
2018-Feb-15 01:30N 44°10' E 028°39'0 0.0
2018-Feb-15 01:00N 44°10' E 028°39'0 0.0
2018-Feb-15 00:30N 44°10' E 028°39'0 0.0
2018-Feb-15 00:00N 44°10' E 028°39'0 0.0
2018-Feb-14 23:30N 44°10' E 028°39'0 0.0
2018-Feb-14 23:00N 44°10' E 028°39'0 0.0
2018-Feb-14 22:30N 44°10' E 028°39'0 0.0
2018-Feb-14 22:00N 44°10' E 028°39'0 0.0
2018-Feb-14 21:30N 44°10' E 028°39'0 0.0
2018-Feb-14 21:00N 44°10' E 028°39'0 0.0
2018-Feb-14 20:30N 44°10' E 028°39'0 0.0
2018-Feb-14 20:00N 44°10' E 028°39'0 0.0
2018-Feb-14 19:30N 44°10' E 028°39'0 0.0
2018-Feb-14 19:00N 44°10' E 028°39'0 0.0
2018-Feb-14 18:30N 44°10' E 028°39'0 0.0
2018-Feb-14 18:00N 44°10' E 028°39'0 0.0
2018-Feb-14 17:30N 44°10' E 028°39'0 0.0
2018-Feb-14 17:00N 44°10' E 028°39'0 0.0
2018-Feb-14 16:31N 44°10' E 028°39'0 0.0
2018-Feb-14 16:00N 44°10' E 028°39'0 0.0
2018-Feb-14 15:30N 44°10' E 028°39'0 0.0
2018-Feb-14 15:00N 44°10' E 028°39'0 0.0
2018-Feb-14 14:30N 44°10' E 028°39'0 0.0
2018-Feb-14 14:00N 44°10' E 028°39'0 0.1
2018-Feb-14 13:30N 44°10' E 028°39'0 0.1
2018-Feb-14 13:00N 44°10' E 028°39'0 0.0
2018-Feb-14 12:30N 44°10' E 028°39'0 0.0
2018-Feb-14 12:00N 44°10' E 028°39'0 0.0
2018-Feb-14 11:31N 44°10' E 028°39'0 0.0
2018-Feb-14 11:00N 44°10' E 028°39'0 0.0
2018-Feb-14 10:30N 44°10' E 028°39'0 0.0
2018-Feb-14 10:00N 44°10' E 028°39'0 0.0
2018-Feb-14 09:30N 44°10' E 028°39'0 0.0
2018-Feb-14 09:00N 44°10' E 028°39'0 0.0
2018-Feb-14 08:30N 44°10' E 028°39'0 0.0
2018-Feb-14 08:00N 44°10' E 028°39'0 0.0
2018-Feb-14 07:30N 44°10' E 028°39'0 0.0
2018-Feb-14 07:00N 44°10' E 028°39'0 0.0
2018-Feb-14 06:30N 44°10' E 028°39'0 0.0
2018-Feb-14 06:00N 44°10' E 028°39'0 0.0
2018-Feb-14 05:29N 44°10' E 028°39'0 0.0
2018-Feb-14 05:00N 44°10' E 028°39'0 0.0
2018-Feb-14 04:30N 44°10' E 028°39'0 0.0
2018-Feb-14 04:00N 44°10' E 028°39'0 0.0
2018-Feb-14 03:30N 44°10' E 028°39'0 0.0
2018-Feb-14 03:00N 44°10' E 028°39'0 0.0
2018-Feb-14 02:30N 44°10' E 028°39'1 1.4
2018-Feb-14 02:00N 44°09' E 028°40'4 8.1
2018-Feb-14 01:30N 44°06' E 028°43'4 8.0
2018-Feb-14 01:00N 44°07' E 028°48'4 8.5
2018-Feb-14 00:30N 44°10' E 028°52'4 7.1
2018-Feb-14 00:01N 44°12' E 028°56'3 6.1
2018-Feb-13 23:30N 44°14' E 028°59'3 6.3
2018-Feb-13 23:01N 44°16' E 029°03'3 6.5
2018-Feb-13 22:30N 44°18' E 029°06'3 6.5
2018-Feb-13 22:01N 44°20' E 029°09'3 6.7
2018-Feb-13 21:30N 44°23' E 029°13'3 6.6
2018-Feb-13 20:59N 44°25' E 029°16'3 6.6
2018-Feb-13 20:29N 44°27' E 029°19'3 6.9
2018-Feb-13 20:00N 44°30' E 029°23'6 0.8
2018-Feb-13 12:22N 44°33' E 029°30'2 5.7
2018-Feb-13 12:00N 44°32' E 029°33'2 2.3
2018-Feb-13 11:14N 44°31' E 029°30'2 7.6
2018-Feb-13 11:00N 44°32' E 029°28'0 0.2
2018-Feb-13 10:30N 44°32' E 029°28'0 0.1
2018-Feb-13 10:00N 44°32' E 029°28'2 0.1
2018-Feb-12 11:43N 44°33' E 029°25'2 7.6
2018-Feb-12 11:30N 44°34' E 029°23'4 7.3
2018-Feb-12 11:00N 44°36' E 029°19'4 7.7
2018-Feb-12 10:30N 44°38' E 029°15'  

Dump ship's entire track history